Pilot No. 4 — WDA5463 — position and weather

sailwx.info

Track history (hours):
 
Tides and Currents Weather Stations Pressure Air Temp Water Temp Dewpoint Dewpoint Depression Visibility Wind Speed Wind Dir Waves Ship Positions

Pilot No. 4

Owner: P E P Inc, FORT LAUDERDALE, FL. More information available from US FCC via Universal Licensing System and Coast Guard Vessel Documentation Center.

Last reported at 2017-Jan-20 17:33 UTC. Time now 2017-Jan-20 18:10 UTC.
Position N 26°06' W 080°07'.

MMSI: 495270931.

Date/timePositionNaut miles runAvg speedWind from/ knotsBaromVisibWave heightAir tempDewpointWater temp
2017-Jan-20 17:33N 26°06' W 080°07'1 1.3
2017-Jan-20 16:34N 26°05' W 080°07'2 0.5
2017-Jan-20 13:33N 26°06' W 080°07'1 0.9
2017-Jan-20 12:33N 26°05' W 080°07'1 0.1
2017-Jan-19 23:33N 26°06' W 080°06'1 1.2
2017-Jan-19 22:34N 26°05' W 080°07'1 1.2
2017-Jan-19 21:33N 26°06' W 080°06'1 1.3
2017-Jan-19 20:34N 26°05' W 080°07'0 0.2
2017-Jan-19 19:33N 26°06' W 080°07'1 0.8
2017-Jan-19 18:33N 26°05' W 080°07'1 0.2
2017-Jan-19 14:05N 26°06' W 080°07'1 1.0
2017-Jan-19 13:34N 26°06' W 080°07'1 0.4
2017-Jan-19 11:33N 26°06' W 080°07'1 1.2
2017-Jan-19 10:33N 26°05' W 080°07'1 0.9
2017-Jan-19 09:33N 26°06' W 080°07'0 0.0
2017-Jan-18 22:06N 26°06' W 080°07'3 5.5
2017-Jan-18 21:33N 26°06' W 080°04'3 2.7
2017-Jan-18 20:33N 26°05' W 080°07'0 0.2
2017-Jan-18 19:33N 26°06' W 080°07'1 0.3
2017-Jan-18 16:33N 26°06' W 080°06'0 0.1
2017-Jan-18 15:33N 26°06' W 080°06'1 0.1
2017-Jan-18 04:23N 26°06' W 080°07'1 0.9
2017-Jan-18 03:33N 26°05' W 080°07'1 1.0
2017-Jan-18 02:33N 26°04' W 080°07'5 4.7
2017-Jan-18 01:33N 26°06' W 080°02'5 2.3
2017-Jan-17 23:33N 26°06' W 080°07'0 0.3
2017-Jan-17 22:33N 26°05' W 080°07'1 1.4
2017-Jan-17 21:33N 26°06' W 080°06'1 0.2
2017-Jan-17 13:33N 26°06' W 080°07'3 2.8
2017-Jan-17 12:33N 26°06' W 080°04'3 2.1
2017-Jan-17 11:09N 26°06' W 080°07'4 7.1
2017-Jan-17 10:34N 26°06' W 080°03'2 1.7
2017-Jan-17 09:33N 26°06' W 080°05'2 1.6
2017-Jan-17 08:34N 26°06' W 080°06'1 0.6
2017-Jan-17 07:34N 26°05' W 080°07'1 0.4
2017-Jan-17 05:25N 26°06' W 080°07'1 0.7
2017-Jan-17 04:33N 26°06' W 080°07'1 0.6
2017-Jan-17 03:33N 26°06' W 080°07'1 1.0
2017-Jan-17 02:33N 26°06' W 080°06'1 0.5
2017-Jan-17 01:34N 26°06' W 080°07'1 0.5
2017-Jan-17 00:33N 26°06' W 080°06'1 0.9
2017-Jan-16 23:08N 26°06' W 080°07'1 1.0
2017-Jan-16 22:33N 26°06' W 080°07'2 1.9
2017-Jan-16 21:33N 26°05' W 080°05'2 1.6
2017-Jan-16 20:24N 26°06' W 080°07'1 0.3
2017-Jan-16 17:33N 26°06' W 080°06'2 1.8
2017-Jan-16 16:33N 26°06' W 080°04'2 2.0
2017-Jan-16 15:33N 26°06' W 080°07'1 0.7
2017-Jan-16 14:16N 26°06' W 080°07'3 3.7
2017-Jan-16 13:33N 26°05' W 080°05'3 2.2
2017-Jan-16 12:26N 26°06' W 080°07'1 1.0
2017-Jan-16 11:33N 26°05' W 080°07'0 0.2
2017-Jan-16 10:33N 26°05' W 080°07'4 4.3
2017-Jan-16 09:33N 26°06' W 080°02'1 1.1
2017-Jan-16 08:33N 26°05' W 080°03'2 2.2
2017-Jan-16 07:33N 26°06' W 080°06'1 0.5
2017-Jan-16 05:33N 26°06' W 080°07'0 0.1
2017-Jan-16 04:33N 26°06' W 080°07'3 1.6
2017-Jan-16 02:33N 26°07' W 080°04'3 3.3
2017-Jan-16 01:33N 26°05' W 080°07'0 0.4
2017-Jan-16 00:33N 26°05' W 080°07'0 0.3
2017-Jan-15 23:33N 26°05' W 080°07'0 0.2
2017-Jan-15 22:33N 26°06' W 080°07'1 0.8
2017-Jan-15 21:33N 26°06' W 080°06'1 0.8
2017-Jan-15 20:33N 26°05' W 080°07'1 0.1
2017-Jan-15 13:11N 26°06' W 080°07'1 1.1
2017-Jan-15 12:33N 26°06' W 080°07'0 0.2
2017-Jan-15 11:33N 26°05' W 080°07'0 0.2
2017-Jan-15 10:34N 26°06' W 080°07'0 0.2
2017-Jan-15 09:33N 26°06' W 080°07'0 0.0
2017-Jan-14 22:26N 26°06' W 080°07'1 0.9
2017-Jan-14 21:34N 26°05' W 080°07'1 0.8
2017-Jan-14 20:33N 26°06' W 080°07'1 0.8
2017-Jan-14 19:33N 26°06' W 080°07'1 0.7
2017-Jan-14 18:33N 26°06' W 080°06'1 1.4
2017-Jan-14 17:29N 26°06' W 080°07'0 0.0
2017-Jan-14 16:28N 26°06' W 080°07'0 0.0
2017-Jan-14 15:21N 26°06' W 080°07'0 0.0
2017-Jan-14 14:07N 26°06' W 080°07'3 4.9
2017-Jan-14 13:33N 26°06' W 080°04'2 2.5
2017-Jan-14 12:33N 26°06' W 080°07'0 0.3
2017-Jan-14 11:33N 26°06' W 080°07'1 1.5
2017-Jan-14 10:33N 26°06' W 080°06'1 1.3
2017-Jan-14 09:33N 26°06' W 080°07'2 2.4
2017-Jan-14 08:33N 26°05' W 080°04'3 2.5
2017-Jan-14 07:33N 26°06' W 080°07'0 0.1
2017-Jan-14 04:34N 26°05' W 080°07'0 0.0
2017-Jan-13 21:33N 26°06' W 080°07'2 2.4
2017-Jan-13 20:33N 26°05' W 080°04'3 2.6
2017-Jan-13 19:33N 26°04' W 080°07'2 1.9
2017-Jan-13 18:32N 26°06' W 080°07'1 0.7
2017-Jan-13 17:33N 26°05' W 080°07'2 2.1
2017-Jan-13 16:33N 26°05' W 080°05'1 1.4
2017-Jan-13 15:33N 26°06' W 080°06'2 2.1
2017-Jan-13 14:33N 26°06' W 080°04'3 2.8
2017-Jan-13 13:34N 26°06' W 080°07'0 0.3
2017-Jan-13 12:18N 26°06' W 080°07'1 0.9
2017-Jan-13 11:33N 26°06' W 080°07'1 1.4
2017-Jan-13 10:33N 26°06' W 080°06'1 1.3
2017-Jan-13 09:33N 26°06' W 080°07'0 0.4
2017-Jan-13 08:33N 26°06' W 080°07'1 0.5
2017-Jan-13 07:34N 26°05' W 080°07'1 0.3
2017-Jan-13 05:33N 26°06' W 080°07'1 1.2
2017-Jan-13 04:33N 26°05' W 080°05'1 0.6
2017-Jan-13 02:33N 26°06' W 080°07'1 0.4
2017-Jan-13 00:33N 26°06' W 080°06'1 0.6
2017-Jan-12 22:33N 26°05' W 080°07'0 0.5
2017-Jan-12 21:33N 26°05' W 080°07'0 0.2
2017-Jan-12 20:33N 26°05' W 080°07'1 0.5
2017-Jan-12 18:21N 26°06' W 080°07'1 0.7
2017-Jan-12 17:33N 26°06' W 080°07'1 0.3
2017-Jan-12 15:32N 26°06' W 080°07'1 0.7
2017-Jan-12 14:33N 26°06' W 080°07'1 0.7
2017-Jan-12 13:33N 26°05' W 080°07'1 0.1
2017-Jan-11 18:09N 26°06' W 080°07'2 4.1
2017-Jan-11 17:34N 26°06' W 080°05'2 2.1
2017-Jan-11 16:34N 26°06' W 080°07'0 0.1
2017-Jan-11 15:33N 26°06' W 080°07'1 0.6
2017-Jan-11 14:34N 26°06' W 080°06'1 0.7
2017-Jan-11 13:34N 26°05' W 080°07'1 1.4
2017-Jan-11 12:33N 26°06' W 080°06'1 1.4
2017-Jan-11 11:33N 26°05' W 080°07'1 1.1
2017-Jan-11 10:16N 26°06' W 080°07'0 0.0
2017-Jan-11 09:04N 26°06' W 080°07'0 0.0
2017-Jan-11 08:07N 26°06' W 080°07'0 0.0
2017-Jan-11 07:21N 26°06' W 080°07'2 2.8
2017-Jan-11 06:33N 26°06' W 080°05'1 0.9
2017-Jan-11 05:33N 26°06' W 080°06'1 0.8
2017-Jan-11 04:33N 26°05' W 080°07'1 0.4
2017-Jan-11 02:32N 26°06' W 080°07'0 0.1
2017-Jan-11 01:33N 26°06' W 080°07'0 0.3
2017-Jan-11 00:33N 26°06' W 080°07'0 0.4
2017-Jan-10 23:33N 26°06' W 080°07'1 0.7
2017-Jan-10 22:33N 26°05' W 080°07'1 1.4
2017-Jan-10 21:33N 26°06' W 080°05'1 1.3
2017-Jan-10 20:33N 26°06' W 080°07'0 0.4
2017-Jan-10 19:32N 26°05' W 080°07'0 0.1
2017-Jan-10 18:33N 26°05' W 080°07'  
Track history (hours):
 
Tides and Currents Weather Stations Pressure Air Temp Water Temp Dewpoint Dewpoint Depression Visibility Wind Speed Wind Dir Waves Ship Positions

Pilot No. 4

Owner: P E P Inc, FORT LAUDERDALE, FL. More information available from US FCC via Universal Licensing System and Coast Guard Vessel Documentation Center.

Last reported at 2017-Jan-20 17:33 UTC. Time now 2017-Jan-20 18:10 UTC.
Position N 26°06' W 080°07'.

MMSI: 495270931.

Date/timePositionNaut miles runAvg speedWind from/ knotsBaromVisibWave heightAir tempDewpointWater temp
2017-Jan-20 17:33N 26°06' W 080°07'1 1.3
2017-Jan-20 16:34N 26°05' W 080°07'2 0.5
2017-Jan-20 13:33N 26°06' W 080°07'1 0.9
2017-Jan-20 12:33N 26°05' W 080°07'1 0.1
2017-Jan-19 23:33N 26°06' W 080°06'1 1.2
2017-Jan-19 22:34N 26°05' W 080°07'1 1.2
2017-Jan-19 21:33N 26°06' W 080°06'1 1.3
2017-Jan-19 20:34N 26°05' W 080°07'0 0.2
2017-Jan-19 19:33N 26°06' W 080°07'1 0.8
2017-Jan-19 18:33N 26°05' W 080°07'1 0.2
2017-Jan-19 14:05N 26°06' W 080°07'1 1.0
2017-Jan-19 13:34N 26°06' W 080°07'1 0.4
2017-Jan-19 11:33N 26°06' W 080°07'1 1.2
2017-Jan-19 10:33N 26°05' W 080°07'1 0.9
2017-Jan-19 09:33N 26°06' W 080°07'0 0.0
2017-Jan-18 22:06N 26°06' W 080°07'3 5.5
2017-Jan-18 21:33N 26°06' W 080°04'3 2.7
2017-Jan-18 20:33N 26°05' W 080°07'0 0.2
2017-Jan-18 19:33N 26°06' W 080°07'1 0.3
2017-Jan-18 16:33N 26°06' W 080°06'0 0.1
2017-Jan-18 15:33N 26°06' W 080°06'1 0.1
2017-Jan-18 04:23N 26°06' W 080°07'1 0.9
2017-Jan-18 03:33N 26°05' W 080°07'1 1.0
2017-Jan-18 02:33N 26°04' W 080°07'5 4.7
2017-Jan-18 01:33N 26°06' W 080°02'5 2.3
2017-Jan-17 23:33N 26°06' W 080°07'0 0.3
2017-Jan-17 22:33N 26°05' W 080°07'1 1.4
2017-Jan-17 21:33N 26°06' W 080°06'1 0.2
2017-Jan-17 13:33N 26°06' W 080°07'3 2.8
2017-Jan-17 12:33N 26°06' W 080°04'3 2.1
2017-Jan-17 11:09N 26°06' W 080°07'4 7.1
2017-Jan-17 10:34N 26°06' W 080°03'2 1.7
2017-Jan-17 09:33N 26°06' W 080°05'2 1.6
2017-Jan-17 08:34N 26°06' W 080°06'1 0.6
2017-Jan-17 07:34N 26°05' W 080°07'1 0.4
2017-Jan-17 05:25N 26°06' W 080°07'1 0.7
2017-Jan-17 04:33N 26°06' W 080°07'1 0.6
2017-Jan-17 03:33N 26°06' W 080°07'1 1.0
2017-Jan-17 02:33N 26°06' W 080°06'1 0.5
2017-Jan-17 01:34N 26°06' W 080°07'1 0.5
2017-Jan-17 00:33N 26°06' W 080°06'1 0.9
2017-Jan-16 23:08N 26°06' W 080°07'1 1.0
2017-Jan-16 22:33N 26°06' W 080°07'2 1.9
2017-Jan-16 21:33N 26°05' W 080°05'2 1.6
2017-Jan-16 20:24N 26°06' W 080°07'1 0.3
2017-Jan-16 17:33N 26°06' W 080°06'2 1.8
2017-Jan-16 16:33N 26°06' W 080°04'2 2.0
2017-Jan-16 15:33N 26°06' W 080°07'1 0.7
2017-Jan-16 14:16N 26°06' W 080°07'3 3.7
2017-Jan-16 13:33N 26°05' W 080°05'3 2.2
2017-Jan-16 12:26N 26°06' W 080°07'1 1.0
2017-Jan-16 11:33N 26°05' W 080°07'0 0.2
2017-Jan-16 10:33N 26°05' W 080°07'4 4.3
2017-Jan-16 09:33N 26°06' W 080°02'1 1.1
2017-Jan-16 08:33N 26°05' W 080°03'2 2.2
2017-Jan-16 07:33N 26°06' W 080°06'1 0.5
2017-Jan-16 05:33N 26°06' W 080°07'0 0.1
2017-Jan-16 04:33N 26°06' W 080°07'3 1.6
2017-Jan-16 02:33N 26°07' W 080°04'3 3.3
2017-Jan-16 01:33N 26°05' W 080°07'0 0.4
2017-Jan-16 00:33N 26°05' W 080°07'0 0.3
2017-Jan-15 23:33N 26°05' W 080°07'0 0.2
2017-Jan-15 22:33N 26°06' W 080°07'1 0.8
2017-Jan-15 21:33N 26°06' W 080°06'1 0.8
2017-Jan-15 20:33N 26°05' W 080°07'1 0.1
2017-Jan-15 13:11N 26°06' W 080°07'1 1.1
2017-Jan-15 12:33N 26°06' W 080°07'0 0.2
2017-Jan-15 11:33N 26°05' W 080°07'0 0.2
2017-Jan-15 10:34N 26°06' W 080°07'0 0.2
2017-Jan-15 09:33N 26°06' W 080°07'0 0.0
2017-Jan-14 22:26N 26°06' W 080°07'1 0.9
2017-Jan-14 21:34N 26°05' W 080°07'1 0.8
2017-Jan-14 20:33N 26°06' W 080°07'1 0.8
2017-Jan-14 19:33N 26°06' W 080°07'1 0.7
2017-Jan-14 18:33N 26°06' W 080°06'1 1.4
2017-Jan-14 17:29N 26°06' W 080°07'0 0.0
2017-Jan-14 16:28N 26°06' W 080°07'0 0.0
2017-Jan-14 15:21N 26°06' W 080°07'0 0.0
2017-Jan-14 14:07N 26°06' W 080°07'3 4.9
2017-Jan-14 13:33N 26°06' W 080°04'2 2.5
2017-Jan-14 12:33N 26°06' W 080°07'0 0.3
2017-Jan-14 11:33N 26°06' W 080°07'1 1.5
2017-Jan-14 10:33N 26°06' W 080°06'1 1.3
2017-Jan-14 09:33N 26°06' W 080°07'2 2.4
2017-Jan-14 08:33N 26°05' W 080°04'3 2.5
2017-Jan-14 07:33N 26°06' W 080°07'0 0.1
2017-Jan-14 04:34N 26°05' W 080°07'0 0.0
2017-Jan-13 21:33N 26°06' W 080°07'2 2.4
2017-Jan-13 20:33N 26°05' W 080°04'3 2.6
2017-Jan-13 19:33N 26°04' W 080°07'2 1.9
2017-Jan-13 18:32N 26°06' W 080°07'1 0.7
2017-Jan-13 17:33N 26°05' W 080°07'2 2.1
2017-Jan-13 16:33N 26°05' W 080°05'1 1.4
2017-Jan-13 15:33N 26°06' W 080°06'2 2.1
2017-Jan-13 14:33N 26°06' W 080°04'3 2.8
2017-Jan-13 13:34N 26°06' W 080°07'0 0.3
2017-Jan-13 12:18N 26°06' W 080°07'1 0.9
2017-Jan-13 11:33N 26°06' W 080°07'1 1.4
2017-Jan-13 10:33N 26°06' W 080°06'1 1.3
2017-Jan-13 09:33N 26°06' W 080°07'0 0.4
2017-Jan-13 08:33N 26°06' W 080°07'1 0.5
2017-Jan-13 07:34N 26°05' W 080°07'1 0.3
2017-Jan-13 05:33N 26°06' W 080°07'1 1.2
2017-Jan-13 04:33N 26°05' W 080°05'1 0.6
2017-Jan-13 02:33N 26°06' W 080°07'1 0.4
2017-Jan-13 00:33N 26°06' W 080°06'1 0.6
2017-Jan-12 22:33N 26°05' W 080°07'0 0.5
2017-Jan-12 21:33N 26°05' W 080°07'0 0.2
2017-Jan-12 20:33N 26°05' W 080°07'1 0.5
2017-Jan-12 18:21N 26°06' W 080°07'1 0.7
2017-Jan-12 17:33N 26°06' W 080°07'1 0.3
2017-Jan-12 15:32N 26°06' W 080°07'1 0.7
2017-Jan-12 14:33N 26°06' W 080°07'1 0.7
2017-Jan-12 13:33N 26°05' W 080°07'1 0.1
2017-Jan-11 18:09N 26°06' W 080°07'2 4.1
2017-Jan-11 17:34N 26°06' W 080°05'2 2.1
2017-Jan-11 16:34N 26°06' W 080°07'0 0.1
2017-Jan-11 15:33N 26°06' W 080°07'1 0.6
2017-Jan-11 14:34N 26°06' W 080°06'1 0.7
2017-Jan-11 13:34N 26°05' W 080°07'1 1.4
2017-Jan-11 12:33N 26°06' W 080°06'1 1.4
2017-Jan-11 11:33N 26°05' W 080°07'1 1.1
2017-Jan-11 10:16N 26°06' W 080°07'0 0.0
2017-Jan-11 09:04N 26°06' W 080°07'0 0.0
2017-Jan-11 08:07N 26°06' W 080°07'0 0.0
2017-Jan-11 07:21N 26°06' W 080°07'2 2.8
2017-Jan-11 06:33N 26°06' W 080°05'1 0.9
2017-Jan-11 05:33N 26°06' W 080°06'1 0.8
2017-Jan-11 04:33N 26°05' W 080°07'1 0.4
2017-Jan-11 02:32N 26°06' W 080°07'0 0.1
2017-Jan-11 01:33N 26°06' W 080°07'0 0.3
2017-Jan-11 00:33N 26°06' W 080°07'0 0.4
2017-Jan-10 23:33N 26°06' W 080°07'1 0.7
2017-Jan-10 22:33N 26°05' W 080°07'1 1.4
2017-Jan-10 21:33N 26°06' W 080°05'1 1.3
2017-Jan-10 20:33N 26°06' W 080°07'0 0.4
2017-Jan-10 19:32N 26°05' W 080°07'0 0.1
2017-Jan-10 18:33N 26°05' W 080°07'  

Dump ship's entire track history